sensor_id;sensor_type;location;lat;lon;timestamp;pressure;altitude;pressure_sealevel;temperature
68127;BMP180;54931;52.098;21.006;2022-10-30T00:02:12;100649.60;;;12.10
68127;BMP180;54931;52.098;21.006;2022-10-30T00:04:39;100641.20;;;12.00
68127;BMP180;54931;52.098;21.006;2022-10-30T00:07:06;100645.40;;;12.00
68127;BMP180;54931;52.098;21.006;2022-10-30T00:09:33;100648.00;;;12.00
68127;BMP180;54931;52.098;21.006;2022-10-30T00:12:00;100647.00;;;12.00
68127;BMP180;54931;52.098;21.006;2022-10-30T00:14:27;100657.60;;;12.00
68127;BMP180;54931;52.098;21.006;2022-10-30T00:16:54;100666.60;;;12.00
68127;BMP180;54931;52.098;21.006;2022-10-30T00:19:38;100657.80;;;12.00
68127;BMP180;54931;52.098;21.006;2022-10-30T00:22:05;100653.20;;;12.00
68127;BMP180;54931;52.098;21.006;2022-10-30T00:24:32;100650.00;;;12.00
68127;BMP180;54931;52.098;21.006;2022-10-30T00:26:59;100645.20;;;12.00
68127;BMP180;54931;52.098;21.006;2022-10-30T00:29:26;100638.40;;;12.00
68127;BMP180;54931;52.098;21.006;2022-10-30T00:31:53;100636.40;;;12.00
68127;BMP180;54931;52.098;21.006;2022-10-30T00:34:20;100633.00;;;12.00
68127;BMP180;54931;52.098;21.006;2022-10-30T00:37:04;100630.20;;;12.00
68127;BMP180;54931;52.098;21.006;2022-10-30T00:39:31;100630.40;;;12.00
68127;BMP180;54931;52.098;21.006;2022-10-30T00:41:58;100630.80;;;12.00
68127;BMP180;54931;52.098;21.006;2022-10-30T00:47:30;100637.40;;;12.00
68127;BMP180;54931;52.098;21.006;2022-10-30T00:50:09;100641.20;;;12.00
68127;BMP180;54931;52.098;21.006;2022-10-30T00:52:51;100639.80;;;12.00
68127;BMP180;54931;52.098;21.006;2022-10-30T00:55:31;100640.40;;;12.00
68127;BMP180;54931;52.098;21.006;2022-10-30T00:58:02;100638.60;;;12.00
68127;BMP180;54931;52.098;21.006;2022-10-30T01:00:36;100634.80;;;12.00
68127;BMP180;54931;52.098;21.006;2022-10-30T01:03:25;100640.40;;;12.00
68127;BMP180;54931;52.098;21.006;2022-10-30T01:05:58;100639.00;;;12.00
68127;BMP180;54931;52.098;21.006;2022-10-30T01:08:26;100630.00;;;12.00
68127;BMP180;54931;52.098;21.006;2022-10-30T01:10:57;100624.20;;;11.90
68127;BMP180;54931;52.098;21.006;2022-10-30T01:13:46;100634.60;;;11.90
68127;BMP180;54931;52.098;21.006;2022-10-30T01:16:57;100629.20;;;11.90
68127;BMP180;54931;52.098;21.006;2022-10-30T01:34:42;100627.20;;;12.00
68127;BMP180;54931;52.098;21.006;2022-10-30T01:38:02;100631.40;;;12.00
68127;BMP180;54931;52.098;21.006;2022-10-30T01:40:44;100635.40;;;12.00
68127;BMP180;54931;52.098;21.006;2022-10-30T01:43:11;100643.20;;;12.00
68127;BMP180;54931;52.098;21.006;2022-10-30T01:48:51;100635.80;;;12.00
68127;BMP180;54931;52.098;21.006;2022-10-30T01:51:40;100625.00;;;12.00
68127;BMP180;54931;52.098;21.006;2022-10-30T01:57:38;100634.60;;;12.06
68127;BMP180;54931;52.098;21.006;2022-10-30T02:00:26;100638.00;;;12.00
68127;BMP180;54931;52.098;21.006;2022-10-30T02:02:53;100643.00;;;12.04
68127;BMP180;54931;52.098;21.006;2022-10-30T02:05:43;100637.20;;;12.00
68127;BMP180;54931;52.098;21.006;2022-10-30T02:08:11;100632.60;;;12.00
68127;BMP180;54931;52.098;21.006;2022-10-30T02:11:06;100634.80;;;12.00
68127;BMP180;54931;52.098;21.006;2022-10-30T02:13:36;100632.80;;;12.00
68127;BMP180;54931;52.098;21.006;2022-10-30T02:16:22;100635.40;;;12.04
68127;BMP180;54931;52.098;21.006;2022-10-30T02:18:49;100635.80;;;12.06
68127;BMP180;54931;52.098;21.006;2022-10-30T02:21:16;100642.80;;;12.10
68127;BMP180;54931;52.098;21.006;2022-10-30T02:23:43;100646.60;;;12.10
68127;BMP180;54931;52.098;21.006;2022-10-30T02:26:10;100643.00;;;12.10
68127;BMP180;54931;52.098;21.006;2022-10-30T02:28:37;100638.20;;;12.10
68127;BMP180;54931;52.098;21.006;2022-10-30T02:31:04;100634.40;;;12.10
68127;BMP180;54931;52.098;21.006;2022-10-30T02:33:33;100632.00;;;12.10
68127;BMP180;54931;52.098;21.006;2022-10-30T02:36:00;100629.40;;;12.10
68127;BMP180;54931;52.098;21.006;2022-10-30T02:38:27;100633.40;;;12.10
68127;BMP180;54931;52.098;21.006;2022-10-30T02:41:11;100634.80;;;12.10
68127;BMP180;54931;52.098;21.006;2022-10-30T02:43:56;100632.00;;;12.10
68127;BMP180;54931;52.098;21.006;2022-10-30T02:46:23;100635.60;;;12.10
68127;BMP180;54931;52.098;21.006;2022-10-30T02:48:50;100640.00;;;12.10
68127;BMP180;54931;52.098;21.006;2022-10-30T02:51:17;100642.00;;;12.10
68127;BMP180;54931;52.098;21.006;2022-10-30T02:54:02;100636.20;;;12.10
68127;BMP180;54931;52.098;21.006;2022-10-30T02:56:29;100635.40;;;12.10
68127;BMP180;54931;52.098;21.006;2022-10-30T02:58:56;100637.20;;;12.10
68127;BMP180;54931;52.098;21.006;2022-10-30T03:01:23;100635.80;;;12.10
68127;BMP180;54931;52.098;21.006;2022-10-30T03:03:50;100638.00;;;12.10
68127;BMP180;54931;52.098;21.006;2022-10-30T03:06:17;100635.20;;;12.10
68127;BMP180;54931;52.098;21.006;2022-10-30T03:08:44;100632.60;;;12.10
68127;BMP180;54931;52.098;21.006;2022-10-30T03:11:15;100641.60;;;12.10
68127;BMP180;54931;52.098;21.006;2022-10-30T03:13:45;100646.80;;;12.10
68127;BMP180;54931;52.098;21.006;2022-10-30T03:16:20;100647.80;;;12.10
68127;BMP180;54931;52.098;21.006;2022-10-30T03:18:48;100649.60;;;12.10
68127;BMP180;54931;52.098;21.006;2022-10-30T03:21:19;100654.80;;;12.10
68127;BMP180;54931;52.098;21.006;2022-10-30T03:23:47;100655.60;;;12.10
68127;BMP180;54931;52.098;21.006;2022-10-30T03:26:17;100657.60;;;12.10
68127;BMP180;54931;52.098;21.006;2022-10-30T03:28:45;100661.40;;;12.10
68127;BMP180;54931;52.098;21.006;2022-10-30T03:31:16;100663.40;;;12.10
68127;BMP180;54931;52.098;21.006;2022-10-30T03:34:00;100660.40;;;12.00
68127;BMP180;54931;52.098;21.006;2022-10-30T03:36:45;100663.40;;;12.00
68127;BMP180;54931;52.098;21.006;2022-10-30T03:39:12;100659.60;;;12.00
68127;BMP180;54931;52.098;21.006;2022-10-30T03:41:57;100660.40;;;12.00
68127;BMP180;54931;52.098;21.006;2022-10-30T03:44:24;100659.80;;;12.00
68127;BMP180;54931;52.098;21.006;2022-10-30T03:46:50;100663.00;;;12.00
68127;BMP180;54931;52.098;21.006;2022-10-30T03:49:17;100665.00;;;11.90
68127;BMP180;54931;52.098;21.006;2022-10-30T03:51:44;100669.60;;;11.90
68127;BMP180;54931;52.098;21.006;2022-10-30T03:54:11;100668.20;;;11.90
68127;BMP180;54931;52.098;21.006;2022-10-30T03:56:56;100674.60;;;11.80
68127;BMP180;54931;52.098;21.006;2022-10-30T03:59:23;100676.00;;;11.80
68127;BMP180;54931;52.098;21.006;2022-10-30T04:01:50;100669.40;;;11.80
68127;BMP180;54931;52.098;21.006;2022-10-30T04:04:16;100675.00;;;11.72
68127;BMP180;54931;52.098;21.006;2022-10-30T04:07:01;100672.60;;;11.70
68127;BMP180;54931;52.098;21.006;2022-10-30T04:09:28;100678.80;;;11.70
68127;BMP180;54931;52.098;21.006;2022-10-30T04:11:55;100676.40;;;11.76
68127;BMP180;54931;52.098;21.006;2022-10-30T04:14:22;100672.80;;;11.80
68127;BMP180;54931;52.098;21.006;2022-10-30T04:16:49;100676.60;;;11.80
68127;BMP180;54931;52.098;21.006;2022-10-30T04:19:16;100673.00;;;11.80
68127;BMP180;54931;52.098;21.006;2022-10-30T04:22:00;100669.60;;;11.80
68127;BMP180;54931;52.098;21.006;2022-10-30T04:24:45;100673.00;;;11.80
68127;BMP180;54931;52.098;21.006;2022-10-30T04:27:41;100667.00;;;11.80
68127;BMP180;54931;52.098;21.006;2022-10-30T04:30:11;100664.40;;;11.80
68127;BMP180;54931;52.098;21.006;2022-10-30T04:35:15;100661.20;;;11.80
68127;BMP180;54931;52.098;21.006;2022-10-30T04:37:42;100665.80;;;11.80
68127;BMP180;54931;52.098;21.006;2022-10-30T04:40:31;100662.60;;;11.80
68127;BMP180;54931;52.098;21.006;2022-10-30T04:43:16;100663.20;;;11.80
68127;BMP180;54931;52.098;21.006;2022-10-30T04:45:43;100659.00;;;11.80
68127;BMP180;54931;52.098;21.006;2022-10-30T04:48:15;100656.60;;;11.84
68127;BMP180;54931;52.098;21.006;2022-10-30T04:50:43;100656.20;;;11.88
68127;BMP180;54931;52.098;21.006;2022-10-30T04:53:15;100649.40;;;11.90
68127;BMP180;54931;52.098;21.006;2022-10-30T04:55:43;100646.60;;;11.88
68127;BMP180;54931;52.098;21.006;2022-10-30T04:58:12;100651.80;;;11.82
68127;BMP180;54931;52.098;21.006;2022-10-30T05:00:40;100644.00;;;11.82
68127;BMP180;54931;52.098;21.006;2022-10-30T05:03:24;100643.80;;;11.88
68127;BMP180;54931;52.098;21.006;2022-10-30T05:05:58;100641.40;;;11.90
68127;BMP180;54931;52.098;21.006;2022-10-30T05:08:26;100645.40;;;11.84
68127;BMP180;54931;52.098;21.006;2022-10-30T05:10:55;100651.00;;;11.80
68127;BMP180;54931;52.098;21.006;2022-10-30T05:13:22;100653.80;;;11.80
68127;BMP180;54931;52.098;21.006;2022-10-30T05:15:50;100657.00;;;11.80
68127;BMP180;54931;52.098;21.006;2022-10-30T05:18:36;100652.00;;;11.80
68127;BMP180;54931;52.098;21.006;2022-10-30T05:21:21;100652.80;;;11.80
68127;BMP180;54931;52.098;21.006;2022-10-30T05:23:48;100654.40;;;11.80
68127;BMP180;54931;52.098;21.006;2022-10-30T05:26:15;100649.00;;;11.80
68127;BMP180;54931;52.098;21.006;2022-10-30T05:28:42;100651.40;;;11.80
68127;BMP180;54931;52.098;21.006;2022-10-30T05:31:09;100651.00;;;11.80
68127;BMP180;54931;52.098;21.006;2022-10-30T05:33:36;100654.40;;;11.86
68127;BMP180;54931;52.098;21.006;2022-10-30T05:36:03;100661.20;;;11.90
68127;BMP180;54931;52.098;21.006;2022-10-30T05:38:30;100665.60;;;11.90
68127;BMP180;54931;52.098;21.006;2022-10-30T05:40:57;100666.60;;;12.00
68127;BMP180;54931;52.098;21.006;2022-10-30T05:43:24;100673.00;;;12.00
68127;BMP180;54931;52.098;21.006;2022-10-30T05:45:51;100682.00;;;12.00
68127;BMP180;54931;52.098;21.006;2022-10-30T05:48:18;100684.20;;;12.00
68127;BMP180;54931;52.098;21.006;2022-10-30T05:50:45;100684.20;;;12.08
68127;BMP180;54931;52.098;21.006;2022-10-30T05:53:12;100686.60;;;12.08
68127;BMP180;54931;52.098;21.006;2022-10-30T05:55:39;100689.20;;;12.10
68127;BMP180;54931;52.098;21.006;2022-10-30T05:58:06;100686.60;;;12.10
68127;BMP180;54931;52.098;21.006;2022-10-30T06:00:35;100687.60;;;12.10
68127;BMP180;54931;52.098;21.006;2022-10-30T06:03:20;100688.40;;;12.10
68127;BMP180;54931;52.098;21.006;2022-10-30T06:05:47;100695.60;;;12.20
68127;BMP180;54931;52.098;21.006;2022-10-30T06:08:15;100692.60;;;12.20
68127;BMP180;54931;52.098;21.006;2022-10-30T06:10:42;100695.80;;;12.20
68127;BMP180;54931;52.098;21.006;2022-10-30T06:13:10;100692.00;;;12.20
68127;BMP180;54931;52.098;21.006;2022-10-30T06:15:37;100693.20;;;12.20
68127;BMP180;54931;52.098;21.006;2022-10-30T06:18:04;100700.80;;;12.20
68127;BMP180;54931;52.098;21.006;2022-10-30T06:20:31;100699.00;;;12.20
68127;BMP180;54931;52.098;21.006;2022-10-30T06:23:05;100694.40;;;12.20
68127;BMP180;54931;52.098;21.006;2022-10-30T06:25:35;100687.60;;;12.20
68127;BMP180;54931;52.098;21.006;2022-10-30T06:28:03;100684.40;;;12.22
68127;BMP180;54931;52.098;21.006;2022-10-30T06:30:30;100675.60;;;12.30
68127;BMP180;54931;52.098;21.006;2022-10-30T06:33:03;100661.00;;;12.30
68127;BMP180;54931;52.098;21.006;2022-10-30T06:35:31;100654.00;;;12.30
68127;BMP180;54931;52.098;21.006;2022-10-30T06:37:59;100654.00;;;12.40
68127;BMP180;54931;52.098;21.006;2022-10-30T06:40:43;100659.60;;;12.40
68127;BMP180;54931;52.098;21.006;2022-10-30T06:43:10;100663.40;;;12.46
68127;BMP180;54931;52.098;21.006;2022-10-30T06:45:37;100673.20;;;12.50
68127;BMP180;54931;52.098;21.006;2022-10-30T06:48:22;100672.20;;;12.50
68127;BMP180;54931;52.098;21.006;2022-10-30T06:50:57;100669.80;;;12.60
68127;BMP180;54931;52.098;21.006;2022-10-30T06:53:42;100675.60;;;12.60
68127;BMP180;54931;52.098;21.006;2022-10-30T06:56:09;100680.00;;;12.70
68127;BMP180;54931;52.098;21.006;2022-10-30T06:58:36;100680.60;;;12.80
68127;BMP180;54931;52.098;21.006;2022-10-30T07:01:05;100685.40;;;12.80
68127;BMP180;54931;52.098;21.006;2022-10-30T07:03:33;100691.20;;;12.90
68127;BMP180;54931;52.098;21.006;2022-10-30T07:06:00;100694.60;;;12.90
68127;BMP180;54931;52.098;21.006;2022-10-30T07:08:28;100695.40;;;12.92
68127;BMP180;54931;52.098;21.006;2022-10-30T07:11:13;100693.20;;;13.00
68127;BMP180;54931;52.098;21.006;2022-10-30T07:13:40;100695.20;;;13.00
68127;BMP180;54931;52.098;21.006;2022-10-30T07:16:07;100698.80;;;13.10
68127;BMP180;54931;52.098;21.006;2022-10-30T07:18:34;100706.80;;;13.10
68127;BMP180;54931;52.098;21.006;2022-10-30T07:21:01;100710.40;;;13.20
68127;BMP180;54931;52.098;21.006;2022-10-30T07:23:46;100707.00;;;13.24
68127;BMP180;54931;52.098;21.006;2022-10-30T07:26:30;100707.40;;;13.30
68127;BMP180;54931;52.098;21.006;2022-10-30T07:28:59;100702.80;;;13.30
68127;BMP180;54931;52.098;21.006;2022-10-30T07:31:26;100703.20;;;13.34
68127;BMP180;54931;52.098;21.006;2022-10-30T07:33:53;100702.60;;;13.40
68127;BMP180;54931;52.098;21.006;2022-10-30T07:36:21;100710.40;;;13.40
68127;BMP180;54931;52.098;21.006;2022-10-30T07:38:49;100710.00;;;13.40
68127;BMP180;54931;52.098;21.006;2022-10-30T07:41:33;100706.00;;;13.40
68127;BMP180;54931;52.098;21.006;2022-10-30T07:44:01;100699.00;;;13.40
68127;BMP180;54931;52.098;21.006;2022-10-30T07:46:28;100701.20;;;13.50
68127;BMP180;54931;52.098;21.006;2022-10-30T07:48:55;100697.60;;;13.54
68127;BMP180;54931;52.098;21.006;2022-10-30T07:51:22;100691.40;;;13.68
68127;BMP180;54931;52.098;21.006;2022-10-30T07:53:51;100680.40;;;13.80
68127;BMP180;54931;52.098;21.006;2022-10-30T07:56:18;100681.60;;;13.88
68127;BMP180;54931;52.098;21.006;2022-10-30T07:59:02;100679.00;;;13.90
68127;BMP180;54931;52.098;21.006;2022-10-30T08:01:47;100683.80;;;14.00
68127;BMP180;54931;52.098;21.006;2022-10-30T08:04:15;100685.80;;;14.00
68127;BMP180;54931;52.098;21.006;2022-10-30T08:06:42;100688.20;;;14.10
68127;BMP180;54931;52.098;21.006;2022-10-30T08:09:10;100698.80;;;14.10
68127;BMP180;54931;52.098;21.006;2022-10-30T08:11:37;100692.20;;;14.10
68127;BMP180;54931;52.098;21.006;2022-10-30T08:14:22;100684.80;;;14.10
68127;BMP180;54931;52.098;21.006;2022-10-30T08:17:06;100687.60;;;14.10
68127;BMP180;54931;52.098;21.006;2022-10-30T08:19:36;100683.60;;;14.20
68127;BMP180;54931;52.098;21.006;2022-10-30T08:22:03;100687.60;;;14.20
68127;BMP180;54931;52.098;21.006;2022-10-30T08:24:30;100688.80;;;14.20
68127;BMP180;54931;52.098;21.006;2022-10-30T08:26:58;100686.40;;;14.20
68127;BMP180;54931;52.098;21.006;2022-10-30T08:29:42;100687.00;;;14.30
68127;BMP180;54931;52.098;21.006;2022-10-30T08:32:09;100690.00;;;14.30
68127;BMP180;54931;52.098;21.006;2022-10-30T08:34:38;100688.60;;;14.40
68127;BMP180;54931;52.098;21.006;2022-10-30T08:37:06;100690.80;;;14.40
68127;BMP180;54931;52.098;21.006;2022-10-30T08:39:34;100691.80;;;14.40
68127;BMP180;54931;52.098;21.006;2022-10-30T08:42:01;100694.80;;;14.40
68127;BMP180;54931;52.098;21.006;2022-10-30T08:44:28;100701.40;;;14.40
68127;BMP180;54931;52.098;21.006;2022-10-30T08:46:55;100706.20;;;14.42
68127;BMP180;54931;52.098;21.006;2022-10-30T08:49:22;100709.40;;;14.44
68127;BMP180;54931;52.098;21.006;2022-10-30T08:51:49;100705.00;;;14.50
68127;BMP180;54931;52.098;21.006;2022-10-30T08:54:16;100703.00;;;14.50
68127;BMP180;54931;52.098;21.006;2022-10-30T08:57:01;100703.00;;;14.50
68127;BMP180;54931;52.098;21.006;2022-10-30T08:59:28;100710.20;;;14.50
68127;BMP180;54931;52.098;21.006;2022-10-30T09:01:55;100714.80;;;14.60
68127;BMP180;54931;52.098;21.006;2022-10-30T09:04:23;100704.00;;;14.60
68127;BMP180;54931;52.098;21.006;2022-10-30T09:07:07;100693.40;;;14.70
68127;BMP180;54931;52.098;21.006;2022-10-30T09:09:34;100686.00;;;14.72
68127;BMP180;54931;52.098;21.006;2022-10-30T09:12:01;100681.20;;;14.78
68127;BMP180;54931;52.098;21.006;2022-10-30T09:14:29;100688.00;;;14.80
68127;BMP180;54931;52.098;21.006;2022-10-30T09:16:56;100690.20;;;14.80
68127;BMP180;54931;52.098;21.006;2022-10-30T09:19:23;100693.80;;;14.80
68127;BMP180;54931;52.098;21.006;2022-10-30T09:22:08;100696.00;;;14.80
68127;BMP180;54931;52.098;21.006;2022-10-30T09:24:35;100697.60;;;14.80
68127;BMP180;54931;52.098;21.006;2022-10-30T09:27:03;100698.40;;;14.80
68127;BMP180;54931;52.098;21.006;2022-10-30T09:29:30;100701.00;;;14.80
68127;BMP180;54931;52.098;21.006;2022-10-30T09:31:58;100705.80;;;14.80
68127;BMP180;54931;52.098;21.006;2022-10-30T09:34:27;100701.60;;;14.80
68127;BMP180;54931;52.098;21.006;2022-10-30T09:36:55;100691.40;;;14.80
68127;BMP180;54931;52.098;21.006;2022-10-30T09:39:40;100692.60;;;14.80
68127;BMP180;54931;52.098;21.006;2022-10-30T09:42:31;100695.00;;;14.80
68127;BMP180;54931;52.098;21.006;2022-10-30T09:48:46;100702.60;;;14.70
68127;BMP180;54931;52.098;21.006;2022-10-30T09:54:40;100709.80;;;14.70
68127;BMP180;54931;52.098;21.006;2022-10-30T10:00:25;100715.20;;;14.70
68127;BMP180;54931;52.098;21.006;2022-10-30T10:05:57;100708.60;;;14.80
68127;BMP180;54931;52.098;21.006;2022-10-30T10:08:39;100698.80;;;14.80
68127;BMP180;54931;52.098;21.006;2022-10-30T10:11:33;100698.60;;;14.80
68127;BMP180;54931;52.098;21.006;2022-10-30T10:14:43;100690.60;;;14.72
68127;BMP180;54931;52.098;21.006;2022-10-30T10:17:20;100691.80;;;14.70
68127;BMP180;54931;52.098;21.006;2022-10-30T10:19:59;100693.00;;;14.70
68127;BMP180;54931;52.098;21.006;2022-10-30T10:22:49;100694.80;;;14.70
68127;BMP180;54931;52.098;21.006;2022-10-30T10:25:19;100698.20;;;14.70
68127;BMP180;54931;52.098;21.006;2022-10-30T10:28:43;100701.40;;;14.80
68127;BMP180;54931;52.098;21.006;2022-10-30T10:37:49;100699.40;;;14.90
68127;BMP180;54931;52.098;21.006;2022-10-30T10:47:07;100700.60;;;15.00
68127;BMP180;54931;52.098;21.006;2022-10-30T10:53:05;100697.20;;;15.10
68127;BMP180;54931;52.098;21.006;2022-10-30T10:55:56;100697.60;;;15.30
68127;BMP180;54931;52.098;21.006;2022-10-30T10:58:38;100695.60;;;15.40
68127;BMP180;54931;52.098;21.006;2022-10-30T11:01:14;100685.40;;;15.40
68127;BMP180;54931;52.098;21.006;2022-10-30T11:04:02;100676.60;;;15.50
68127;BMP180;54931;52.098;21.006;2022-10-30T11:06:35;100681.80;;;15.50
68127;BMP180;54931;52.098;21.006;2022-10-30T11:09:23;100686.40;;;15.40
68127;BMP180;54931;52.098;21.006;2022-10-30T11:11:54;100686.00;;;15.40
68127;BMP180;54931;52.098;21.006;2022-10-30T11:14:26;100679.40;;;15.40
68127;BMP180;54931;52.098;21.006;2022-10-30T11:17:31;100684.00;;;15.36
68127;BMP180;54931;52.098;21.006;2022-10-30T11:20:20;100680.20;;;15.30
68127;BMP180;54931;52.098;21.006;2022-10-30T11:22:49;100677.00;;;15.20
68127;BMP180;54931;52.098;21.006;2022-10-30T11:25:26;100676.20;;;15.16
68127;BMP180;54931;52.098;21.006;2022-10-30T11:28:02;100676.80;;;15.10
68127;BMP180;54931;52.098;21.006;2022-10-30T11:30:31;100677.20;;;15.08
68127;BMP180;54931;52.098;21.006;2022-10-30T11:33:21;100677.60;;;15.00
68127;BMP180;54931;52.098;21.006;2022-10-30T11:35:49;100669.40;;;14.98
68127;BMP180;54931;52.098;21.006;2022-10-30T11:38:33;100669.20;;;14.94
68127;BMP180;54931;52.098;21.006;2022-10-30T11:41:19;100679.00;;;15.00
68127;BMP180;54931;52.098;21.006;2022-10-30T11:43:47;100676.40;;;15.10
68127;BMP180;54931;52.098;21.006;2022-10-30T11:46:21;100680.60;;;15.20
68127;BMP180;54931;52.098;21.006;2022-10-30T11:48:49;100680.40;;;15.24
68127;BMP180;54931;52.098;21.006;2022-10-30T11:51:48;100682.60;;;15.26
68127;BMP180;54931;52.098;21.006;2022-10-30T11:54:20;100681.00;;;15.30
68127;BMP180;54931;52.098;21.006;2022-10-30T11:59:46;100679.00;;;15.30
68127;BMP180;54931;52.098;21.006;2022-10-30T12:02:27;100678.00;;;15.20
68127;BMP180;54931;52.098;21.006;2022-10-30T12:05:01;100681.20;;;15.20
68127;BMP180;54931;52.098;21.006;2022-10-30T12:07:32;100679.60;;;15.10
68127;BMP180;54931;52.098;21.006;2022-10-30T12:10:25;100683.20;;;15.10
68127;BMP180;54931;52.098;21.006;2022-10-30T12:13:16;100675.40;;;15.10
68127;BMP180;54931;52.098;21.006;2022-10-30T12:15:48;100669.60;;;15.20
68127;BMP180;54931;52.098;21.006;2022-10-30T12:18:34;100659.60;;;15.40
68127;BMP180;54931;52.098;21.006;2022-10-30T12:21:02;100664.80;;;15.60
68127;BMP180;54931;52.098;21.006;2022-10-30T12:23:31;100662.40;;;15.78
68127;BMP180;54931;52.098;21.006;2022-10-30T12:26:08;100657.00;;;16.00
68127;BMP180;54931;52.098;21.006;2022-10-30T12:29:01;100655.20;;;16.00
68127;BMP180;54931;52.098;21.006;2022-10-30T12:31:59;100664.80;;;15.90
68127;BMP180;54931;52.098;21.006;2022-10-30T12:34:39;100657.40;;;15.86
68127;BMP180;54931;52.098;21.006;2022-10-30T12:37:41;100656.20;;;15.90
68127;BMP180;54931;52.098;21.006;2022-10-30T12:40:30;100656.00;;;15.90
68127;BMP180;54931;52.098;21.006;2022-10-30T12:43:25;100656.40;;;15.80
68127;BMP180;54931;52.098;21.006;2022-10-30T12:46:09;100655.60;;;15.70
68127;BMP180;54931;52.098;21.006;2022-10-30T12:48:54;100652.80;;;15.70
68127;BMP180;54931;52.098;21.006;2022-10-30T12:51:34;100653.80;;;15.70
68127;BMP180;54931;52.098;21.006;2022-10-30T12:54:34;100655.40;;;15.80
68127;BMP180;54931;52.098;21.006;2022-10-30T12:57:19;100656.60;;;15.80
68127;BMP180;54931;52.098;21.006;2022-10-30T13:00:10;100646.00;;;15.80
68127;BMP180;54931;52.098;21.006;2022-10-30T13:03:12;100643.60;;;15.68
68127;BMP180;54931;52.098;21.006;2022-10-30T13:05:53;100646.00;;;15.50
68127;BMP180;54931;52.098;21.006;2022-10-30T13:08:43;100648.20;;;15.40
68127;BMP180;54931;52.098;21.006;2022-10-30T13:11:51;100643.20;;;15.40
68127;BMP180;54931;52.098;21.006;2022-10-30T13:17:14;100645.40;;;15.60
68127;BMP180;54931;52.098;21.006;2022-10-30T13:19:45;100631.40;;;15.60
68127;BMP180;54931;52.098;21.006;2022-10-30T13:22:25;100635.60;;;15.60
68127;BMP180;54931;52.098;21.006;2022-10-30T13:34:32;100629.40;;;15.30
68127;BMP180;54931;52.098;21.006;2022-10-30T13:46:05;100625.20;;;15.00
68127;BMP180;54931;52.098;21.006;2022-10-30T13:52:11;100619.20;;;14.88
68127;BMP180;54931;52.098;21.006;2022-10-30T13:55:18;100620.80;;;14.80
68127;BMP180;54931;52.098;21.006;2022-10-30T13:58:01;100619.80;;;14.80
68127;BMP180;54931;52.098;21.006;2022-10-30T14:01:12;100619.60;;;14.80
68127;BMP180;54931;52.098;21.006;2022-10-30T14:09:14;100624.60;;;14.60
68127;BMP180;54931;52.098;21.006;2022-10-30T14:11:45;100625.60;;;14.50
68127;BMP180;54931;52.098;21.006;2022-10-30T14:17:15;100620.40;;;14.50
68127;BMP180;54931;52.098;21.006;2022-10-30T14:25:43;100628.60;;;14.50
68127;BMP180;54931;52.098;21.006;2022-10-30T14:31:06;100619.60;;;14.50
68127;BMP180;54931;52.098;21.006;2022-10-30T14:33:54;100618.00;;;14.48
68127;BMP180;54931;52.098;21.006;2022-10-30T14:42:01;100610.80;;;14.30
68127;BMP180;54931;52.098;21.006;2022-10-30T14:48:23;100613.00;;;14.20
68127;BMP180;54931;52.098;21.006;2022-10-30T14:51:13;100611.80;;;14.10
68127;BMP180;54931;52.098;21.006;2022-10-30T14:54:09;100616.20;;;14.08
68127;BMP180;54931;52.098;21.006;2022-10-30T14:56:46;100623.40;;;13.98
68127;BMP180;54931;52.098;21.006;2022-10-30T15:05:21;100621.00;;;13.70
68127;BMP180;54931;52.098;21.006;2022-10-30T15:08:17;100599.40;;;13.70
68127;BMP180;54931;52.098;21.006;2022-10-30T15:11:20;100603.40;;;13.60
68127;BMP180;54931;52.098;21.006;2022-10-30T15:16:50;100609.20;;;13.50
68127;BMP180;54931;52.098;21.006;2022-10-30T15:19:22;100603.80;;;13.50
68127;BMP180;54931;52.098;21.006;2022-10-30T15:22:17;100604.00;;;13.40
68127;BMP180;54931;52.098;21.006;2022-10-30T15:25:11;100600.60;;;13.30
68127;BMP180;54931;52.098;21.006;2022-10-30T15:27:57;100601.20;;;13.30
68127;BMP180;54931;52.098;21.006;2022-10-30T15:31:06;100607.40;;;13.20
68127;BMP180;54931;52.098;21.006;2022-10-30T15:33:36;100609.40;;;13.20
68127;BMP180;54931;52.098;21.006;2022-10-30T15:36:04;100616.80;;;13.20
68127;BMP180;54931;52.098;21.006;2022-10-30T15:39:16;100617.20;;;13.20
68127;BMP180;54931;52.098;21.006;2022-10-30T15:41:49;100626.00;;;13.14
68127;BMP180;54931;52.098;21.006;2022-10-30T15:44:40;100620.80;;;13.10
68127;BMP180;54931;52.098;21.006;2022-10-30T15:47:24;100614.80;;;13.10
68127;BMP180;54931;52.098;21.006;2022-10-30T15:49:53;100610.60;;;13.00
68127;BMP180;54931;52.098;21.006;2022-10-30T15:52:24;100610.80;;;13.00
68127;BMP180;54931;52.098;21.006;2022-10-30T15:55:05;100595.40;;;13.00
68127;BMP180;54931;52.098;21.006;2022-10-30T15:57:51;100594.40;;;13.00
68127;BMP180;54931;52.098;21.006;2022-10-30T16:00:37;100617.00;;;12.96
68127;BMP180;54931;52.098;21.006;2022-10-30T16:06:15;100605.40;;;12.88
68127;BMP180;54931;52.098;21.006;2022-10-30T16:08:46;100605.00;;;12.90
68127;BMP180;54931;52.098;21.006;2022-10-30T16:11:14;100600.60;;;12.90
68127;BMP180;54931;52.098;21.006;2022-10-30T16:14:07;100595.20;;;12.88
68127;BMP180;54931;52.098;21.006;2022-10-30T16:16:52;100593.60;;;12.82
68127;BMP180;54931;52.098;21.006;2022-10-30T16:19:27;100596.60;;;12.80
68127;BMP180;54931;52.098;21.006;2022-10-30T16:21:56;100596.60;;;12.80
68127;BMP180;54931;52.098;21.006;2022-10-30T16:24:32;100605.20;;;12.90
68127;BMP180;54931;52.098;21.006;2022-10-30T16:27:21;100602.40;;;12.90
68127;BMP180;54931;52.098;21.006;2022-10-30T16:29:52;100605.20;;;12.90
68127;BMP180;54931;52.098;21.006;2022-10-30T16:32:28;100613.60;;;12.80
68127;BMP180;54931;52.098;21.006;2022-10-30T16:35:14;100613.00;;;12.70